createdAt,value
2018-12-04T00:01:11.447Z,100639.31
2018-12-04T00:03:39.231Z,100641.64
2018-12-04T00:06:07.068Z,100647.73
2018-12-04T00:08:34.820Z,100648.66
2018-12-04T00:11:02.595Z,100654.44
2018-12-04T00:13:30.466Z,100659.72
2018-12-04T00:15:58.281Z,100662.22
2018-12-04T00:18:26.131Z,100662.95
2018-12-04T00:20:53.896Z,100667.54
2018-12-04T00:23:21.689Z,100671.47
2018-12-04T00:25:49.465Z,100685.41
2018-12-04T00:28:17.236Z,100684.76
2018-12-04T00:30:45.072Z,100690.69
2018-12-04T00:33:12.872Z,100701.63
2018-12-04T00:35:40.702Z,100711.03
2018-12-04T00:38:08.502Z,100712.03
2018-12-04T00:40:36.291Z,100717.58
2018-12-04T00:43:04.117Z,100732.14
2018-12-04T00:45:32.007Z,100739.38
2018-12-04T00:47:59.793Z,100742.09
2018-12-04T00:50:27.617Z,100742.66
2018-12-04T00:52:55.437Z,100745.90
2018-12-04T00:55:23.325Z,100759.55
2018-12-04T00:57:51.122Z,100758.02
2018-12-04T01:00:18.945Z,100769.06
2018-12-04T01:02:46.798Z,100770.37
2018-12-04T01:05:15.292Z,100773.63
2018-12-04T01:07:43.067Z,100781.61
2018-12-04T01:10:10.861Z,100781.52
2018-12-04T01:12:38.751Z,100788.45
2018-12-04T01:15:07.156Z,100791.88
2018-12-04T01:17:34.938Z,100801.50
2018-12-04T01:20:02.877Z,100807.66
2018-12-04T01:22:31.178Z,100814.08
2018-12-04T01:24:59.017Z,100815.39
2018-12-04T01:27:26.838Z,100813.45
2018-12-04T01:29:54.648Z,100827.71
2018-12-04T01:32:22.455Z,100834.81
2018-12-04T01:34:50.289Z,100854.57
2018-12-04T01:37:18.242Z,100853.27
2018-12-04T01:39:46.150Z,100862.89
2018-12-04T01:42:14.032Z,100861.03
2018-12-04T01:44:41.863Z,100860.22
2018-12-04T01:47:09.680Z,100864.35
2018-12-04T01:49:37.628Z,100874.88
2018-12-04T01:52:05.467Z,100887.58
2018-12-04T01:54:33.314Z,100889.56
2018-12-04T01:57:01.161Z,100890.66
2018-12-04T01:59:28.972Z,100905.91
2018-12-04T02:01:56.853Z,100903.11
2018-12-04T02:04:24.689Z,100910.83
2018-12-04T02:06:52.505Z,100914.31
2018-12-04T02:09:20.304Z,100925.58
2018-12-04T02:11:48.126Z,100928.34
2018-12-04T02:14:15.893Z,100935.78
2018-12-04T02:16:43.985Z,100943.63
2018-12-04T02:19:11.785Z,100964.57
2018-12-04T02:21:39.523Z,100964.48
2018-12-04T02:24:07.313Z,100965.66
2018-12-04T02:26:35.169Z,100953.57
2018-12-04T02:29:02.971Z,100960.84
2018-12-04T02:31:30.747Z,100958.47
2018-12-04T02:33:58.535Z,100967.62
2018-12-04T02:36:26.293Z,100971.36
2018-12-04T02:38:54.036Z,100976.59
2018-12-04T02:41:21.823Z,100989.44
2018-12-04T02:43:49.625Z,100984.45
2018-12-04T02:46:17.427Z,100991.52
2018-12-04T02:48:45.161Z,101009.27
2018-12-04T02:51:12.937Z,101011.75
2018-12-04T02:53:40.735Z,101018.28
2018-12-04T02:56:08.507Z,101026.83
2018-12-04T02:58:36.255Z,101046.42
2018-12-04T03:01:04.044Z,101052.44
2018-12-04T03:03:31.814Z,101053.42
2018-12-04T03:05:59.669Z,101055.98
2018-12-04T03:08:27.437Z,101065.70
2018-12-04T03:10:55.252Z,101072.92
2018-12-04T03:13:23.025Z,101068.73
2018-12-04T03:15:50.845Z,101074.94
2018-12-04T03:18:18.628Z,101067.87
2018-12-04T03:20:46.401Z,101070.06
2018-12-04T03:23:14.204Z,101082.82
2018-12-04T03:25:41.959Z,101087.31
2018-12-04T03:28:09.746Z,101092.54
2018-12-04T03:30:37.648Z,101097.83
2018-12-04T03:33:05.514Z,101095.96
2018-12-04T03:35:33.334Z,101104.20
2018-12-04T03:46:39.299Z,101125.32
2018-12-04T03:49:37.073Z,101119.98
2018-12-04T03:52:04.820Z,101128.58
2018-12-04T03:54:32.593Z,101133.89
2018-12-04T03:57:00.323Z,101127.86
2018-12-04T03:59:28.106Z,101136.77
2018-12-04T04:01:55.893Z,101136.83
2018-12-04T04:04:23.749Z,101139.53
2018-12-04T04:06:51.521Z,101137.41
2018-12-04T04:09:19.256Z,101151.08
2018-12-04T04:11:47.152Z,101156.80
2018-12-04T04:14:14.984Z,101154.56
2018-12-04T04:16:42.810Z,101159.73
2018-12-04T04:19:10.661Z,101170.62
2018-12-04T04:21:38.470Z,101168.16
2018-12-04T04:24:06.286Z,101179.51
2018-12-04T04:26:34.067Z,101186.14
2018-12-04T04:29:01.825Z,101193.48
2018-12-04T04:31:29.596Z,101198.89
2018-12-04T04:33:57.329Z,101197.66
2018-12-04T04:36:25.167Z,101208.62
2018-12-04T04:38:52.920Z,101208.94
2018-12-04T04:41:20.733Z,101209.20
2018-12-04T04:43:48.556Z,101208.94
2018-12-04T04:46:16.370Z,101214.27
2018-12-04T04:48:44.094Z,101213.75
2018-12-04T04:51:11.880Z,101219.16
2018-12-04T04:53:39.708Z,101228.38
2018-12-04T04:56:07.453Z,101236.00
2018-12-04T04:58:35.298Z,101244.81
2018-12-04T05:01:03.094Z,101247.05
2018-12-04T05:03:30.924Z,101265.45
2018-12-04T05:05:58.688Z,101272.72
2018-12-04T05:08:26.427Z,101273.20
2018-12-04T05:10:54.168Z,101283.25
2018-12-04T05:13:21.970Z,101292.02
2018-12-04T05:15:49.749Z,101309.41
2018-12-04T05:18:17.486Z,101304.20
2018-12-04T05:20:45.274Z,101301.75
2018-12-04T05:23:13.017Z,101305.42
2018-12-04T05:25:40.796Z,101319.30
2018-12-04T05:28:08.545Z,101323.58
2018-12-04T05:30:36.272Z,101323.42
2018-12-04T05:33:04.009Z,101329.45
2018-12-04T05:35:31.759Z,101329.61
2018-12-04T05:37:59.455Z,101339.34
2018-12-04T05:40:27.193Z,101351.05
2018-12-04T05:42:54.978Z,101361.67
2018-12-04T05:45:22.731Z,101376.98
2018-12-04T05:47:50.514Z,101392.84
2018-12-04T05:50:18.277Z,101389.09
2018-12-04T05:52:56.078Z,101398.34
2018-12-04T05:55:23.780Z,101397.09
2018-12-04T05:57:51.553Z,101401.59
2018-12-04T06:00:19.357Z,101414.20
2018-12-04T06:02:47.065Z,101414.25
2018-12-04T06:05:14.859Z,101417.80
2018-12-04T06:07:42.568Z,101425.23
2018-12-04T06:10:10.373Z,101425.23
2018-12-04T06:12:38.760Z,101431.77
2018-12-04T06:15:06.613Z,101433.95
2018-12-04T06:17:34.372Z,101444.04
2018-12-04T06:20:02.153Z,101443.31
2018-12-04T06:22:29.878Z,101450.37
2018-12-04T06:24:57.676Z,101459.56
2018-12-04T06:27:25.401Z,101460.08
2018-12-04T06:29:53.228Z,101475.70
2018-12-04T06:32:21.010Z,101472.60
2018-12-04T06:34:48.788Z,101478.45
2018-12-04T06:37:16.560Z,101489.56
2018-12-04T06:39:44.301Z,101494.06
2018-12-04T06:42:12.034Z,101503.59
2018-12-04T06:44:39.838Z,101500.51
2018-12-04T06:47:07.570Z,101511.07
2018-12-04T06:49:35.331Z,101514.27
2018-12-04T06:52:03.128Z,101519.58
2018-12-04T06:54:30.905Z,101523.08
2018-12-04T06:56:58.655Z,101536.30
2018-12-04T06:59:26.618Z,101546.55
2018-12-04T07:01:54.401Z,101549.33
2018-12-04T07:04:22.961Z,101559.00
2018-12-04T07:06:50.720Z,101559.83
2018-12-04T07:09:18.456Z,101577.67
2018-12-04T07:11:46.255Z,101576.39
2018-12-04T07:14:14.007Z,101586.52
2018-12-04T07:16:41.786Z,101599.84
2018-12-04T07:19:09.517Z,101598.49
2018-12-04T07:21:37.432Z,101603.56
2018-12-04T07:24:05.197Z,101607.03
2018-12-04T07:26:32.949Z,101615.23
2018-12-04T07:29:00.744Z,101620.16
2018-12-04T07:31:28.555Z,101632.83
2018-12-04T07:33:56.341Z,101639.47
2018-12-04T07:36:24.129Z,101643.35
2018-12-04T07:38:51.873Z,101656.56
2018-12-04T07:41:19.773Z,101671.27
2018-12-04T07:43:47.515Z,101680.97
2018-12-04T07:46:15.330Z,101678.30
2018-12-04T07:48:43.125Z,101684.47
2018-12-04T07:51:11.069Z,101690.00
2018-12-04T07:53:38.962Z,101695.64
2018-12-04T07:56:06.801Z,101703.37
2018-12-04T07:58:34.559Z,101701.64
2018-12-04T08:01:02.333Z,101699.55
2018-12-04T08:03:30.194Z,101703.25
2018-12-04T08:06:00.039Z,101714.07
2018-12-04T08:08:27.797Z,101713.95
2018-12-04T08:10:55.572Z,101726.31
2018-12-04T08:13:23.297Z,101730.70
2018-12-04T08:15:51.024Z,101738.84
2018-12-04T08:18:18.777Z,101738.00
2018-12-04T08:20:46.533Z,101742.34
2018-12-04T08:23:14.281Z,101741.20
2018-12-04T08:25:42.000Z,101748.30
2018-12-04T08:28:09.720Z,101748.99
2018-12-04T08:30:37.472Z,101763.51
2018-12-04T08:33:05.283Z,101768.87
2018-12-04T08:35:33.063Z,101783.38
2018-12-04T08:38:00.925Z,101781.06
2018-12-04T08:40:28.731Z,101786.81
2018-12-04T08:42:56.477Z,101794.80
2018-12-04T08:45:24.224Z,101792.59
2018-12-04T08:47:51.952Z,101797.83
2018-12-04T08:50:19.827Z,101804.68
2018-12-04T08:52:47.575Z,101807.75
2018-12-04T08:55:15.341Z,101811.50
2018-12-04T08:57:43.137Z,101815.25
2018-12-04T09:00:10.951Z,101824.95
2018-12-04T09:02:38.789Z,101830.30
2018-12-04T09:05:07.569Z,101830.41
2018-12-04T09:07:35.309Z,101835.05
2018-12-04T09:10:03.566Z,101836.32
2018-12-04T09:12:31.297Z,101847.05
2018-12-04T09:14:59.048Z,101858.27
2018-12-04T09:17:26.784Z,101863.07
2018-12-04T09:19:54.537Z,101870.05
2018-12-04T09:22:22.421Z,101872.84
2018-12-04T09:24:50.265Z,101884.79
2018-12-04T09:27:18.125Z,101893.66
2018-12-04T09:29:45.972Z,101900.80
2018-12-04T09:32:13.857Z,101898.41
2018-12-04T09:34:41.663Z,101907.86
2018-12-04T09:37:09.422Z,101910.84
2018-12-04T09:39:37.229Z,101912.86
2018-12-04T09:42:05.245Z,101918.46
2018-12-04T09:44:33.016Z,101921.26
2018-12-04T09:47:00.934Z,101928.63
2018-12-04T09:49:28.695Z,101935.19
2018-12-04T09:51:56.501Z,101947.82
2018-12-04T09:54:24.327Z,101953.58
2018-12-04T09:56:52.569Z,101953.88
2018-12-04T09:59:20.340Z,101957.05
2018-12-04T10:01:48.242Z,101964.47
2018-12-04T10:04:16.049Z,101964.83
2018-12-04T10:06:43.806Z,101969.78
2018-12-04T10:09:11.634Z,101971.20
2018-12-04T10:11:39.439Z,101972.98
2018-12-04T10:14:07.378Z,101986.39
2018-12-04T10:16:35.129Z,101985.97
2018-12-04T10:19:02.934Z,101996.64
2018-12-04T10:21:30.684Z,102002.70
2018-12-04T10:23:58.459Z,101997.65
2018-12-04T10:26:26.280Z,102000.74
2018-12-04T10:28:54.037Z,102005.92
2018-12-04T10:31:21.833Z,102008.18
2018-12-04T10:33:49.567Z,102008.82
2018-12-04T10:36:17.352Z,102010.05
2018-12-04T10:38:45.208Z,102011.34
2018-12-04T10:41:13.906Z,102015.11
2018-12-04T10:43:41.695Z,102013.62
2018-12-04T10:46:09.474Z,102011.57
2018-12-04T10:48:37.265Z,102014.66
2018-12-04T10:51:05.036Z,102020.39
2018-12-04T10:53:32.830Z,102024.49
2018-12-04T10:56:00.604Z,102027.20
2018-12-04T10:58:28.470Z,102027.25
2018-12-04T11:00:58.221Z,102038.61
2018-12-04T11:03:31.750Z,102046.55
2018-12-04T11:05:59.537Z,102052.25
2018-12-04T11:08:27.258Z,102050.63
2018-12-04T11:10:55.068Z,102048.53
2018-12-04T11:13:22.852Z,102049.02
2018-12-04T11:15:50.696Z,102054.02
2018-12-04T11:18:18.529Z,102054.99
2018-12-04T11:20:46.259Z,102052.54
2018-12-04T11:23:14.022Z,102047.14
2018-12-04T11:25:41.799Z,102047.70
2018-12-04T11:28:09.548Z,102057.20
2018-12-04T11:30:37.374Z,102061.83
2018-12-04T11:33:05.313Z,102062.80
2018-12-04T11:35:33.126Z,102061.03
2018-12-04T11:38:01.102Z,102065.11
2018-12-04T11:40:29.004Z,102069.70
2018-12-04T11:42:56.781Z,102075.05
2018-12-04T11:45:24.520Z,102079.51
2018-12-04T11:47:52.327Z,102077.52
2018-12-04T11:50:20.144Z,102092.95
2018-12-04T11:52:48.142Z,102103.45
2018-12-04T11:55:16.070Z,102100.06
2018-12-04T11:57:43.873Z,102100.20
2018-12-04T12:00:19.999Z,102094.95
2018-12-04T12:02:47.756Z,102084.48
2018-12-04T12:05:15.643Z,102090.73
2018-12-04T12:07:43.436Z,102095.67
2018-12-04T12:10:11.201Z,102100.82
2018-12-04T12:12:39.096Z,102105.77
2018-12-04T12:15:07.006Z,102119.03
2018-12-04T12:17:34.773Z,102125.50
2018-12-04T12:20:03.167Z,102122.14
2018-12-04T12:22:30.956Z,102131.61
2018-12-04T12:25:04.348Z,102136.27
2018-12-04T12:27:32.116Z,102149.72
2018-12-04T12:30:00.064Z,102145.95
2018-12-04T12:32:28.972Z,102159.50
2018-12-04T12:34:56.699Z,102156.14
2018-12-04T12:37:24.624Z,102158.00
2018-12-04T12:39:52.398Z,102167.09
2018-12-04T12:42:20.419Z,102170.57
2018-12-04T12:44:48.262Z,102178.27
2018-12-04T12:47:16.096Z,102179.73
2018-12-04T12:49:43.861Z,102177.00
2018-12-04T12:52:11.819Z,102176.52
2018-12-04T12:54:41.609Z,102185.14
2018-12-04T12:57:09.371Z,102187.89
2018-12-04T12:59:37.165Z,102187.84
2018-12-04T13:02:04.920Z,102186.51
2018-12-04T13:04:34.055Z,102184.75
2018-12-04T13:07:01.834Z,102186.81
2018-12-04T13:09:30.181Z,102190.05
2018-12-04T13:11:57.996Z,102197.08
2018-12-04T13:14:25.752Z,102186.55
2018-12-04T13:16:53.513Z,102190.53
2018-12-04T13:19:21.411Z,102187.08
2018-12-04T13:21:49.230Z,102184.05
2018-12-04T13:24:16.977Z,102192.60
2018-12-04T13:26:44.820Z,102196.33
2018-12-04T13:29:12.606Z,102200.59
2018-12-04T13:31:40.402Z,102205.98
2018-12-04T13:34:08.151Z,102212.77
2018-12-04T13:36:35.937Z,102217.41
2018-12-04T13:39:06.896Z,102219.33
2018-12-04T13:41:35.199Z,102229.22
2018-12-04T13:44:03.078Z,102232.33
2018-12-04T13:46:30.863Z,102237.89
2018-12-04T13:48:58.611Z,102236.52
2018-12-04T13:51:26.390Z,102233.28
2018-12-04T13:53:54.168Z,102237.92
2018-12-04T13:56:21.931Z,102239.24
2018-12-04T13:58:49.698Z,102251.41
2018-12-04T14:01:17.500Z,102246.95
2018-12-04T14:03:45.205Z,102251.05
2018-12-04T14:06:12.923Z,102250.72
2018-12-04T14:08:41.411Z,102259.36
2018-12-04T14:11:09.137Z,102260.50
2018-12-04T14:13:37.048Z,102257.50
2018-12-04T14:16:04.891Z,102261.73
2018-12-04T14:18:32.651Z,102263.64
2018-12-04T14:21:00.405Z,102268.95
2018-12-04T14:23:28.278Z,102279.52
2018-12-04T14:25:56.039Z,102280.83
2018-12-04T14:28:23.853Z,102288.66
2018-12-04T14:30:51.591Z,102296.86
2018-12-04T14:33:19.441Z,102295.63
2018-12-04T14:35:47.144Z,102300.70
2018-12-04T14:38:14.898Z,102306.77
2018-12-04T14:40:42.720Z,102311.13
2018-12-04T14:43:10.579Z,102312.55
2018-12-04T14:45:38.371Z,102315.80
2018-12-04T14:48:06.140Z,102321.65
2018-12-04T14:50:34.307Z,102318.09
2018-12-04T14:53:02.068Z,102333.05
2018-12-04T14:55:30.195Z,102329.75
2018-12-04T14:57:57.979Z,102343.13
2018-12-04T15:00:25.961Z,102340.23
2018-12-04T15:02:53.739Z,102344.17
2018-12-04T15:05:21.577Z,102351.91
2018-12-04T15:07:49.416Z,102352.07
2018-12-04T15:10:17.241Z,102357.94
2018-12-04T15:12:45.087Z,102370.16
2018-12-04T15:15:12.863Z,102374.37
2018-12-04T15:17:40.632Z,102384.77
2018-12-04T15:20:08.792Z,102384.44
2018-12-04T15:22:36.694Z,102388.87
2018-12-04T15:25:04.851Z,102389.46
2018-12-04T15:27:32.733Z,102394.33
2018-12-04T15:30:00.511Z,102394.41
2018-12-04T15:32:28.359Z,102397.36
2018-12-04T15:34:56.233Z,102394.20
2018-12-04T15:37:24.182Z,102398.05
2018-12-04T15:39:52.786Z,102397.44
2018-12-04T15:42:20.758Z,102395.58
2018-12-04T15:44:48.526Z,102394.24
2018-12-04T15:47:16.297Z,102389.81
2018-12-04T15:49:44.114Z,102394.77
2018-12-04T15:52:11.883Z,102400.30
2018-12-04T15:54:39.749Z,102400.17
2018-12-04T15:57:07.587Z,102402.97
2018-12-04T15:59:35.556Z,102402.88
2018-12-04T16:02:03.456Z,102410.30
2018-12-04T16:04:31.263Z,102414.10
2018-12-04T16:06:59.029Z,102411.19
2018-12-04T16:09:26.799Z,102416.02
2018-12-04T16:11:54.530Z,102415.49
2018-12-04T16:14:22.272Z,102414.17
2018-12-04T16:16:50.031Z,102415.20
2018-12-04T16:19:17.797Z,102418.17
2018-12-04T16:21:45.524Z,102421.28
2018-12-04T16:24:13.261Z,102421.66
2018-12-04T16:26:41.911Z,102415.71
2018-12-04T16:29:09.656Z,102418.25
2018-12-04T16:31:37.416Z,102419.35
2018-12-04T16:34:05.251Z,102417.11
2018-12-04T16:36:32.977Z,102420.75
2018-12-04T16:39:00.716Z,102429.50
2018-12-04T16:41:28.463Z,102430.32
2018-12-04T16:43:56.216Z,102428.89
2018-12-04T16:46:23.977Z,102429.58
2018-12-04T16:48:51.744Z,102442.45
2018-12-04T16:51:19.515Z,102444.73
2018-12-04T16:53:47.278Z,102444.94
2018-12-04T16:56:15.018Z,102455.06
2018-12-04T16:58:42.942Z,102455.62
2018-12-04T17:01:10.765Z,102461.05
2018-12-04T17:03:38.757Z,102463.45
2018-12-04T17:06:06.546Z,102462.92
2018-12-04T17:08:34.336Z,102462.89
2018-12-04T17:11:02.068Z,102461.86
2018-12-04T17:13:29.800Z,102467.72
2018-12-04T17:15:57.838Z,102469.50
2018-12-04T17:18:25.580Z,102473.80
2018-12-04T17:20:53.341Z,102472.12
2018-12-04T17:23:21.104Z,102476.53
2018-12-04T17:25:48.940Z,102478.52
2018-12-04T17:28:16.746Z,102471.30
2018-12-04T17:30:44.500Z,102474.62
2018-12-04T17:33:12.240Z,102471.31
2018-12-04T17:35:40.064Z,102478.28
2018-12-04T17:38:07.854Z,102480.95
2018-12-04T17:40:35.624Z,102477.34
2018-12-04T17:43:03.429Z,102474.07
2018-12-04T17:45:31.159Z,102468.18
2018-12-04T17:47:58.951Z,102470.87
2018-12-04T17:50:26.751Z,102468.71
2018-12-04T17:52:54.575Z,102473.20
2018-12-04T17:55:22.480Z,102473.20
2018-12-04T17:57:50.217Z,102477.72
2018-12-04T18:00:18.150Z,102483.81
2018-12-04T18:02:45.909Z,102484.53
2018-12-04T18:05:13.669Z,102490.61
2018-12-04T18:07:41.454Z,102481.11
2018-12-04T18:10:09.259Z,102483.45
2018-12-04T18:12:37.034Z,102483.00
2018-12-04T18:15:05.945Z,102489.53
2018-12-04T18:17:33.667Z,102487.41
2018-12-04T18:20:01.461Z,102498.55
2018-12-04T18:22:29.248Z,102491.39
2018-12-04T18:24:57.014Z,102498.73
2018-12-04T18:27:24.820Z,102503.05
2018-12-04T18:29:52.571Z,102507.62
2018-12-04T18:32:20.342Z,102513.92
2018-12-04T18:34:48.133Z,102519.95
2018-12-04T18:37:16.030Z,102521.45
2018-12-04T18:39:44.021Z,102521.71
2018-12-04T18:42:11.763Z,102519.09
2018-12-04T18:44:39.518Z,102520.77
2018-12-04T18:47:07.262Z,102529.42
2018-12-04T18:49:35.240Z,102522.16
2018-12-04T18:52:03.007Z,102527.79
2018-12-04T18:54:30.792Z,102524.67
2018-12-04T18:56:58.655Z,102538.91
2018-12-04T18:59:26.385Z,102543.71
2018-12-04T19:01:54.151Z,102546.59
2018-12-04T19:04:21.926Z,102546.31
2018-12-04T19:06:49.697Z,102548.70
2018-12-04T19:09:17.412Z,102555.77
2018-12-04T19:11:45.197Z,102559.02
2018-12-04T19:14:13.088Z,102561.79
2018-12-04T19:16:40.865Z,102566.11
2018-12-04T19:19:08.760Z,102564.94
2018-12-04T19:21:36.498Z,102562.22
2018-12-04T19:24:04.281Z,102567.84
2018-12-04T19:26:32.212Z,102567.63
2018-12-04T19:29:00.033Z,102567.70
2018-12-04T19:31:27.798Z,102566.45
2018-12-04T19:33:55.649Z,102568.19
2018-12-04T19:36:23.455Z,102564.84
2018-12-04T19:38:51.226Z,102569.13
2018-12-04T19:41:19.053Z,102568.36
2018-12-04T19:43:46.785Z,102566.40
2018-12-04T19:46:14.534Z,102565.09
2018-12-04T19:48:42.317Z,102572.38
2018-12-04T19:51:10.081Z,102570.84
2018-12-04T19:53:37.862Z,102567.45
2018-12-04T19:56:05.825Z,102575.81
2018-12-04T19:58:33.782Z,102574.15
2018-12-04T20:01:01.514Z,102573.55
2018-12-04T20:03:29.258Z,102576.64
2018-12-04T20:05:57.229Z,102593.38
2018-12-04T20:08:29.661Z,102603.05
2018-12-04T20:10:57.404Z,102595.95
2018-12-04T20:13:25.290Z,102590.98
2018-12-04T20:15:53.951Z,102604.03
2018-12-04T20:18:21.992Z,102594.40
2018-12-04T20:20:49.738Z,102608.86
2018-12-04T20:23:17.460Z,102601.16
2018-12-04T20:25:45.325Z,102603.29
2018-12-04T20:28:13.032Z,102609.64
2018-12-04T20:30:40.856Z,102607.28
2018-12-04T20:33:08.639Z,102604.02
2018-12-04T20:35:36.447Z,102599.45
2018-12-04T20:38:04.232Z,102594.25
2018-12-04T20:40:32.058Z,102598.41
2018-12-04T20:42:59.871Z,102597.88
2018-12-04T20:45:27.556Z,102610.67
2018-12-04T20:47:55.426Z,102613.02
2018-12-04T20:50:23.314Z,102612.88
2018-12-04T20:52:51.082Z,102614.73
2018-12-04T20:55:19.158Z,102611.32
2018-12-04T20:57:46.962Z,102614.43
2018-12-04T21:00:14.799Z,102616.67
2018-12-04T21:02:42.542Z,102611.75
2018-12-04T21:05:10.344Z,102608.72
2018-12-04T21:07:38.090Z,102606.78
2018-12-04T21:10:06.591Z,102611.59
2018-12-04T21:12:34.404Z,102616.03
2018-12-04T21:15:02.167Z,102616.56
2018-12-04T21:17:29.936Z,102623.75
2018-12-04T21:19:57.787Z,102619.70
2018-12-04T21:22:25.477Z,102625.08
2018-12-04T21:24:53.233Z,102618.42
2018-12-04T21:27:26.728Z,102621.94
2018-12-04T21:29:59.951Z,102624.94
2018-12-04T21:32:33.157Z,102623.00
2018-12-04T21:36:04.938Z,102629.76
2018-12-04T21:38:38.289Z,102629.91
2018-12-04T21:41:13.597Z,102619.72
2018-12-04T21:43:47.044Z,102626.13
2018-12-04T21:46:20.425Z,102626.23
2018-12-04T21:48:48.309Z,102624.27
2018-12-04T21:51:16.039Z,102630.28
2018-12-04T21:53:43.809Z,102623.86
2018-12-04T21:56:11.549Z,102630.38
2018-12-04T21:58:39.348Z,102635.34
2018-12-04T22:01:07.050Z,102633.53
2018-12-04T22:03:34.879Z,102633.79
2018-12-04T22:06:02.612Z,102633.79
2018-12-04T22:08:30.344Z,102632.99
2018-12-04T22:10:58.105Z,102630.02
2018-12-04T22:13:25.895Z,102630.13
2018-12-04T22:15:53.684Z,102630.13
2018-12-04T22:18:21.454Z,102627.52
2018-12-04T22:20:49.190Z,102629.08
2018-12-04T22:23:16.947Z,102632.24
2018-12-04T22:25:44.694Z,102632.50
2018-12-04T22:28:12.428Z,102638.38
2018-12-04T22:30:40.134Z,102635.62
2018-12-04T22:33:07.949Z,102635.92
2018-12-04T22:35:35.718Z,102638.53
2018-12-04T22:38:03.493Z,102641.52
2018-12-04T22:40:31.389Z,102640.09
2018-12-04T22:42:59.148Z,102636.19
2018-12-04T22:45:27.040Z,102636.95
2018-12-04T22:47:55.260Z,102637.75
2018-12-04T22:50:23.013Z,102632.80
2018-12-04T22:52:50.823Z,102635.91
2018-12-04T22:55:18.612Z,102634.36
2018-12-04T22:57:46.402Z,102640.77
2018-12-04T23:00:35.505Z,102635.27
2018-12-04T23:03:03.377Z,102638.42
2018-12-04T23:05:31.171Z,102642.84
2018-12-04T23:07:58.901Z,102640.48
2018-12-04T23:10:26.665Z,102650.27
2018-12-04T23:12:54.421Z,102654.83
2018-12-04T23:15:22.152Z,102649.77
2018-12-04T23:17:50.140Z,102640.38
2018-12-04T23:20:17.873Z,102641.40
2018-12-04T23:22:45.621Z,102639.84
2018-12-04T23:25:13.402Z,102638.03
2018-12-04T23:27:41.144Z,102639.98
2018-12-04T23:30:09.029Z,102640.88
2018-12-04T23:32:36.749Z,102639.44
2018-12-04T23:35:05.049Z,102633.85
2018-12-04T23:37:32.789Z,102618.72
2018-12-04T23:40:00.545Z,102622.63
2018-12-04T23:42:28.267Z,102617.81
2018-12-04T23:44:56.033Z,102628.34
2018-12-04T23:47:23.808Z,102621.30
2018-12-04T23:49:51.560Z,102618.44
2018-12-04T23:52:19.388Z,102617.39
2018-12-04T23:54:47.130Z,102621.30
2018-12-04T23:57:14.914Z,102618.03
2018-12-04T23:59:42.730Z,102623.23
